sensor_id;sensor_type;location;lat;lon;timestamp;P1;durP1;ratioP1;P2;durP2;ratioP2
151;SDS011;68;48.792;9.164;2024-03-08T00:01:25;54.08;;;40.55;;
151;SDS011;68;48.792;9.164;2024-03-08T00:03:52;48.75;;;39.58;;
151;SDS011;68;48.792;9.164;2024-03-08T00:06:19;50.45;;;41.50;;
151;SDS011;68;48.792;9.164;2024-03-08T00:08:46;50.70;;;41.63;;
151;SDS011;68;48.792;9.164;2024-03-08T00:11:13;46.38;;;39.70;;
151;SDS011;68;48.792;9.164;2024-03-08T00:13:41;51.30;;;41.58;;
151;SDS011;68;48.792;9.164;2024-03-08T00:16:10;52.22;;;42.20;;
151;SDS011;68;48.792;9.164;2024-03-08T00:18:37;46.65;;;40.30;;
151;SDS011;68;48.792;9.164;2024-03-08T00:21:04;54.08;;;40.63;;
151;SDS011;68;48.792;9.164;2024-03-08T00:23:30;50.25;;;40.10;;
151;SDS011;68;48.792;9.164;2024-03-08T00:25:58;51.88;;;42.00;;
151;SDS011;68;48.792;9.164;2024-03-08T00:28:25;48.40;;;40.45;;
151;SDS011;68;48.792;9.164;2024-03-08T00:30:53;47.45;;;39.70;;
151;SDS011;68;48.792;9.164;2024-03-08T00:33:20;49.72;;;41.50;;
151;SDS011;68;48.792;9.164;2024-03-08T00:35:47;51.22;;;40.65;;
151;SDS011;68;48.792;9.164;2024-03-08T00:38:14;52.03;;;42.47;;
151;SDS011;68;48.792;9.164;2024-03-08T00:40:40;52.35;;;43.10;;
151;SDS011;68;48.792;9.164;2024-03-08T00:43:07;57.50;;;43.47;;
151;SDS011;68;48.792;9.164;2024-03-08T00:45:34;52.90;;;43.03;;
151;SDS011;68;48.792;9.164;2024-03-08T00:48:03;51.47;;;41.40;;
151;SDS011;68;48.792;9.164;2024-03-08T00:50:31;49.70;;;40.92;;
151;SDS011;68;48.792;9.164;2024-03-08T00:52:59;47.83;;;40.67;;
151;SDS011;68;48.792;9.164;2024-03-08T00:55:26;46.65;;;39.78;;
151;SDS011;68;48.792;9.164;2024-03-08T00:57:52;53.38;;;42.42;;
151;SDS011;68;48.792;9.164;2024-03-08T01:00:19;49.63;;;40.88;;
151;SDS011;68;48.792;9.164;2024-03-08T01:02:46;47.60;;;40.40;;
151;SDS011;68;48.792;9.164;2024-03-08T01:05:14;46.60;;;40.17;;
151;SDS011;68;48.792;9.164;2024-03-08T01:07:41;49.83;;;40.60;;
151;SDS011;68;48.792;9.164;2024-03-08T01:10:08;50.45;;;41.90;;
151;SDS011;68;48.792;9.164;2024-03-08T01:12:35;46.08;;;38.85;;
151;SDS011;68;48.792;9.164;2024-03-08T01:15:02;49.50;;;40.72;;
151;SDS011;68;48.792;9.164;2024-03-08T01:17:29;44.90;;;38.78;;
151;SDS011;68;48.792;9.164;2024-03-08T01:19:56;48.22;;;39.53;;
151;SDS011;68;48.792;9.164;2024-03-08T01:22:25;50.72;;;41.15;;
151;SDS011;68;48.792;9.164;2024-03-08T01:24:53;46.90;;;39.03;;
151;SDS011;68;48.792;9.164;2024-03-08T01:27:19;49.67;;;40.33;;
151;SDS011;68;48.792;9.164;2024-03-08T01:29:46;50.00;;;41.45;;
151;SDS011;68;48.792;9.164;2024-03-08T01:32:13;50.15;;;39.88;;
151;SDS011;68;48.792;9.164;2024-03-08T01:34:40;48.47;;;40.95;;
151;SDS011;68;48.792;9.164;2024-03-08T01:37:07;54.33;;;42.55;;
151;SDS011;68;48.792;9.164;2024-03-08T01:39:35;50.47;;;40.75;;
151;SDS011;68;48.792;9.164;2024-03-08T01:42:02;49.35;;;39.75;;
151;SDS011;68;48.792;9.164;2024-03-08T01:44:29;46.42;;;40.75;;
151;SDS011;68;48.792;9.164;2024-03-08T01:46:56;51.38;;;41.47;;
151;SDS011;68;48.792;9.164;2024-03-08T01:49:23;49.47;;;41.00;;
151;SDS011;68;48.792;9.164;2024-03-08T01:51:52;49.78;;;41.17;;
151;SDS011;68;48.792;9.164;2024-03-08T01:54:21;47.80;;;39.30;;
151;SDS011;68;48.792;9.164;2024-03-08T01:56:50;49.33;;;41.28;;
151;SDS011;68;48.792;9.164;2024-03-08T01:59:18;50.55;;;41.00;;
151;SDS011;68;48.792;9.164;2024-03-08T02:01:45;50.17;;;41.22;;
151;SDS011;68;48.792;9.164;2024-03-08T02:04:12;47.63;;;40.70;;
151;SDS011;68;48.792;9.164;2024-03-08T02:06:39;48.88;;;39.42;;
151;SDS011;68;48.792;9.164;2024-03-08T02:09:06;49.83;;;40.55;;
151;SDS011;68;48.792;9.164;2024-03-08T02:11:33;48.70;;;40.78;;
151;SDS011;68;48.792;9.164;2024-03-08T02:14:02;51.97;;;40.53;;
151;SDS011;68;48.792;9.164;2024-03-08T02:16:31;48.80;;;40.33;;
151;SDS011;68;48.792;9.164;2024-03-08T02:18:58;46.85;;;39.85;;
151;SDS011;68;48.792;9.164;2024-03-08T02:21:26;48.15;;;39.42;;
151;SDS011;68;48.792;9.164;2024-03-08T02:23:53;48.65;;;40.20;;
151;SDS011;68;48.792;9.164;2024-03-08T02:26:20;49.95;;;38.60;;
151;SDS011;68;48.792;9.164;2024-03-08T02:28:47;45.13;;;38.97;;
151;SDS011;68;48.792;9.164;2024-03-08T02:31:15;51.00;;;40.75;;
151;SDS011;68;48.792;9.164;2024-03-08T02:33:41;47.33;;;39.15;;
151;SDS011;68;48.792;9.164;2024-03-08T02:36:08;48.22;;;40.63;;
151;SDS011;68;48.792;9.164;2024-03-08T02:38:36;47.65;;;40.35;;
151;SDS011;68;48.792;9.164;2024-03-08T02:41:03;45.20;;;38.72;;
151;SDS011;68;48.792;9.164;2024-03-08T02:43:31;43.78;;;37.55;;
151;SDS011;68;48.792;9.164;2024-03-08T02:45:56;49.63;;;40.40;;
151;SDS011;68;48.792;9.164;2024-03-08T02:48:24;44.17;;;38.78;;
151;SDS011;68;48.792;9.164;2024-03-08T02:50:51;43.53;;;37.80;;
151;SDS011;68;48.792;9.164;2024-03-08T02:53:18;47.03;;;38.85;;
151;SDS011;68;48.792;9.164;2024-03-08T02:55:46;44.60;;;38.40;;
151;SDS011;68;48.792;9.164;2024-03-08T02:58:13;44.72;;;38.25;;
151;SDS011;68;48.792;9.164;2024-03-08T03:00:40;46.55;;;39.50;;
151;SDS011;68;48.792;9.164;2024-03-08T03:03:09;45.97;;;38.00;;
151;SDS011;68;48.792;9.164;2024-03-08T03:05:36;44.67;;;37.97;;
151;SDS011;68;48.792;9.164;2024-03-08T03:08:03;47.55;;;37.72;;
151;SDS011;68;48.792;9.164;2024-03-08T03:10:33;42.38;;;36.40;;
151;SDS011;68;48.792;9.164;2024-03-08T03:13:02;45.15;;;37.95;;
151;SDS011;68;48.792;9.164;2024-03-08T03:15:29;43.03;;;36.08;;
151;SDS011;68;48.792;9.164;2024-03-08T03:17:56;45.45;;;37.17;;
151;SDS011;68;48.792;9.164;2024-03-08T03:20:23;44.35;;;37.10;;
151;SDS011;68;48.792;9.164;2024-03-08T03:22:51;44.53;;;37.05;;
151;SDS011;68;48.792;9.164;2024-03-08T03:25:18;46.17;;;38.55;;
151;SDS011;68;48.792;9.164;2024-03-08T03:27:51;45.83;;;37.90;;
151;SDS011;68;48.792;9.164;2024-03-08T03:30:22;45.42;;;38.78;;
151;SDS011;68;48.792;9.164;2024-03-08T03:32:51;45.17;;;38.03;;
151;SDS011;68;48.792;9.164;2024-03-08T03:35:19;45.00;;;37.63;;
151;SDS011;68;48.792;9.164;2024-03-08T03:37:46;42.83;;;37.47;;
151;SDS011;68;48.792;9.164;2024-03-08T03:40:26;48.60;;;37.35;;
151;SDS011;68;48.792;9.164;2024-03-08T03:42:53;46.65;;;39.08;;
151;SDS011;68;48.792;9.164;2024-03-08T03:45:20;41.97;;;37.10;;
151;SDS011;68;48.792;9.164;2024-03-08T03:47:48;44.75;;;38.60;;
151;SDS011;68;48.792;9.164;2024-03-08T03:50:15;46.47;;;39.75;;
151;SDS011;68;48.792;9.164;2024-03-08T03:52:44;41.97;;;37.13;;
151;SDS011;68;48.792;9.164;2024-03-08T03:55:11;43.13;;;38.35;;
151;SDS011;68;48.792;9.164;2024-03-08T03:57:38;45.42;;;37.53;;
151;SDS011;68;48.792;9.164;2024-03-08T04:00:05;46.25;;;37.67;;
151;SDS011;68;48.792;9.164;2024-03-08T04:02:35;49.47;;;41.00;;
151;SDS011;68;48.792;9.164;2024-03-08T04:05:04;45.38;;;38.42;;
151;SDS011;68;48.792;9.164;2024-03-08T04:07:33;43.10;;;37.22;;
151;SDS011;68;48.792;9.164;2024-03-08T04:09:59;43.50;;;37.55;;
151;SDS011;68;48.792;9.164;2024-03-08T04:12:26;47.17;;;39.40;;
151;SDS011;68;48.792;9.164;2024-03-08T04:14:54;45.72;;;38.75;;
151;SDS011;68;48.792;9.164;2024-03-08T04:17:21;44.50;;;38.85;;
151;SDS011;68;48.792;9.164;2024-03-08T04:19:49;50.00;;;38.72;;
151;SDS011;68;48.792;9.164;2024-03-08T04:22:17;46.42;;;39.97;;
151;SDS011;68;48.792;9.164;2024-03-08T04:24:44;45.40;;;39.70;;
151;SDS011;68;48.792;9.164;2024-03-08T04:27:12;48.05;;;39.15;;
151;SDS011;68;48.792;9.164;2024-03-08T04:29:39;45.53;;;38.83;;
151;SDS011;68;48.792;9.164;2024-03-08T04:32:06;48.08;;;39.03;;
151;SDS011;68;48.792;9.164;2024-03-08T04:34:33;44.50;;;38.45;;
151;SDS011;68;48.792;9.164;2024-03-08T04:37:00;47.97;;;38.92;;
151;SDS011;68;48.792;9.164;2024-03-08T04:39:31;46.72;;;39.13;;
151;SDS011;68;48.792;9.164;2024-03-08T04:41:59;47.63;;;39.30;;
151;SDS011;68;48.792;9.164;2024-03-08T04:44:29;44.20;;;38.10;;
151;SDS011;68;48.792;9.164;2024-03-08T04:46:56;44.97;;;39.22;;
151;SDS011;68;48.792;9.164;2024-03-08T04:49:23;47.25;;;39.75;;
151;SDS011;68;48.792;9.164;2024-03-08T04:51:50;50.55;;;41.95;;
151;SDS011;68;48.792;9.164;2024-03-08T04:54:16;47.63;;;39.40;;
151;SDS011;68;48.792;9.164;2024-03-08T04:56:45;46.63;;;38.92;;
151;SDS011;68;48.792;9.164;2024-03-08T04:59:12;46.72;;;39.33;;
151;SDS011;68;48.792;9.164;2024-03-08T05:01:38;44.80;;;38.72;;
151;SDS011;68;48.792;9.164;2024-03-08T05:04:05;52.20;;;40.00;;
151;SDS011;68;48.792;9.164;2024-03-08T05:06:32;46.80;;;39.75;;
151;SDS011;68;48.792;9.164;2024-03-08T05:08:59;55.47;;;41.95;;
151;SDS011;68;48.792;9.164;2024-03-08T05:11:25;50.88;;;41.50;;
151;SDS011;68;48.792;9.164;2024-03-08T05:13:53;45.45;;;39.28;;
151;SDS011;68;48.792;9.164;2024-03-08T05:16:20;50.88;;;40.05;;
151;SDS011;68;48.792;9.164;2024-03-08T05:18:49;47.45;;;40.28;;
151;SDS011;68;48.792;9.164;2024-03-08T05:21:17;46.05;;;38.58;;
151;SDS011;68;48.792;9.164;2024-03-08T05:23:45;47.95;;;40.22;;
151;SDS011;68;48.792;9.164;2024-03-08T05:26:12;49.95;;;42.47;;
151;SDS011;68;48.792;9.164;2024-03-08T05:28:40;50.90;;;43.30;;
151;SDS011;68;48.792;9.164;2024-03-08T05:31:08;50.90;;;40.85;;
151;SDS011;68;48.792;9.164;2024-03-08T05:33:34;46.97;;;40.22;;
151;SDS011;68;48.792;9.164;2024-03-08T05:36:02;48.80;;;39.78;;
151;SDS011;68;48.792;9.164;2024-03-08T05:38:28;48.08;;;39.80;;
151;SDS011;68;48.792;9.164;2024-03-08T05:40:55;52.55;;;42.60;;
151;SDS011;68;48.792;9.164;2024-03-08T05:43:22;53.72;;;41.58;;
151;SDS011;68;48.792;9.164;2024-03-08T05:45:49;49.70;;;41.85;;
151;SDS011;68;48.792;9.164;2024-03-08T05:48:18;52.20;;;41.00;;
151;SDS011;68;48.792;9.164;2024-03-08T05:50:45;54.42;;;42.47;;
151;SDS011;68;48.792;9.164;2024-03-08T05:53:11;52.08;;;44.55;;
151;SDS011;68;48.792;9.164;2024-03-08T05:55:38;50.22;;;42.03;;
151;SDS011;68;48.792;9.164;2024-03-08T05:58:05;59.63;;;45.50;;
151;SDS011;68;48.792;9.164;2024-03-08T06:00:33;56.45;;;42.85;;
151;SDS011;68;48.792;9.164;2024-03-08T06:03:01;49.63;;;40.58;;
151;SDS011;68;48.792;9.164;2024-03-08T06:05:30;53.00;;;44.10;;
151;SDS011;68;48.792;9.164;2024-03-08T06:07:56;51.20;;;41.92;;
151;SDS011;68;48.792;9.164;2024-03-08T06:10:23;52.42;;;45.03;;
151;SDS011;68;48.792;9.164;2024-03-08T06:12:50;57.30;;;45.42;;
151;SDS011;68;48.792;9.164;2024-03-08T06:15:17;51.80;;;43.10;;
151;SDS011;68;48.792;9.164;2024-03-08T06:17:45;53.20;;;44.47;;
151;SDS011;68;48.792;9.164;2024-03-08T06:20:12;52.50;;;43.13;;
151;SDS011;68;48.792;9.164;2024-03-08T06:22:41;58.13;;;45.60;;
151;SDS011;68;48.792;9.164;2024-03-08T06:25:09;54.90;;;43.38;;
151;SDS011;68;48.792;9.164;2024-03-08T06:27:38;55.08;;;44.15;;
151;SDS011;68;48.792;9.164;2024-03-08T06:30:06;55.25;;;43.40;;
151;SDS011;68;48.792;9.164;2024-03-08T06:32:34;56.17;;;45.30;;
151;SDS011;68;48.792;9.164;2024-03-08T06:35:02;55.13;;;44.65;;
151;SDS011;68;48.792;9.164;2024-03-08T06:37:31;54.17;;;43.47;;
151;SDS011;68;48.792;9.164;2024-03-08T06:39:59;50.72;;;42.67;;
151;SDS011;68;48.792;9.164;2024-03-08T06:42:26;55.50;;;44.95;;
151;SDS011;68;48.792;9.164;2024-03-08T06:44:53;54.10;;;43.78;;
151;SDS011;68;48.792;9.164;2024-03-08T06:47:24;50.83;;;43.10;;
151;SDS011;68;48.792;9.164;2024-03-08T06:49:51;51.60;;;43.40;;
151;SDS011;68;48.792;9.164;2024-03-08T06:52:18;51.45;;;43.38;;
151;SDS011;68;48.792;9.164;2024-03-08T06:54:45;53.50;;;44.45;;
151;SDS011;68;48.792;9.164;2024-03-08T06:57:13;51.67;;;43.33;;
151;SDS011;68;48.792;9.164;2024-03-08T06:59:41;50.38;;;42.88;;
151;SDS011;68;48.792;9.164;2024-03-08T07:02:08;55.10;;;42.92;;
151;SDS011;68;48.792;9.164;2024-03-08T07:04:35;53.00;;;43.55;;
151;SDS011;68;48.792;9.164;2024-03-08T07:07:03;50.42;;;41.38;;
151;SDS011;68;48.792;9.164;2024-03-08T07:09:29;51.33;;;42.30;;
151;SDS011;68;48.792;9.164;2024-03-08T07:11:57;50.95;;;42.05;;
151;SDS011;68;48.792;9.164;2024-03-08T07:14:26;46.97;;;40.78;;
151;SDS011;68;48.792;9.164;2024-03-08T07:16:52;49.10;;;41.95;;
151;SDS011;68;48.792;9.164;2024-03-08T07:19:19;50.08;;;42.92;;
151;SDS011;68;48.792;9.164;2024-03-08T07:21:46;52.55;;;43.90;;
151;SDS011;68;48.792;9.164;2024-03-08T07:24:13;53.60;;;43.20;;
151;SDS011;68;48.792;9.164;2024-03-08T07:26:57;50.10;;;42.30;;
151;SDS011;68;48.792;9.164;2024-03-08T07:29:25;52.30;;;42.75;;
151;SDS011;68;48.792;9.164;2024-03-08T07:31:53;49.88;;;42.28;;
151;SDS011;68;48.792;9.164;2024-03-08T07:34:32;53.53;;;41.95;;
151;SDS011;68;48.792;9.164;2024-03-08T07:36:59;48.38;;;41.17;;
151;SDS011;68;48.792;9.164;2024-03-08T07:39:26;48.22;;;39.88;;
151;SDS011;68;48.792;9.164;2024-03-08T07:41:53;51.15;;;41.30;;
151;SDS011;68;48.792;9.164;2024-03-08T07:44:20;47.40;;;41.60;;
151;SDS011;68;48.792;9.164;2024-03-08T07:46:48;47.05;;;39.65;;
151;SDS011;68;48.792;9.164;2024-03-08T07:49:15;46.60;;;40.25;;
151;SDS011;68;48.792;9.164;2024-03-08T07:51:41;45.70;;;40.17;;
151;SDS011;68;48.792;9.164;2024-03-08T07:54:08;46.25;;;39.38;;
151;SDS011;68;48.792;9.164;2024-03-08T07:56:35;47.28;;;38.92;;
151;SDS011;68;48.792;9.164;2024-03-08T07:59:02;49.15;;;39.90;;
151;SDS011;68;48.792;9.164;2024-03-08T08:01:30;44.75;;;39.60;;
151;SDS011;68;48.792;9.164;2024-03-08T08:03:59;43.58;;;37.90;;
151;SDS011;68;48.792;9.164;2024-03-08T08:06:27;46.28;;;39.72;;
151;SDS011;68;48.792;9.164;2024-03-08T08:08:56;45.50;;;38.72;;
151;SDS011;68;48.792;9.164;2024-03-08T08:11:25;43.38;;;36.70;;
151;SDS011;68;48.792;9.164;2024-03-08T08:13:52;46.55;;;38.95;;
151;SDS011;68;48.792;9.164;2024-03-08T08:16:19;44.10;;;37.10;;
151;SDS011;68;48.792;9.164;2024-03-08T08:18:46;47.22;;;39.25;;
151;SDS011;68;48.792;9.164;2024-03-08T08:21:15;44.50;;;38.80;;
151;SDS011;68;48.792;9.164;2024-03-08T08:23:43;42.97;;;37.05;;
151;SDS011;68;48.792;9.164;2024-03-08T08:26:10;43.90;;;37.03;;
151;SDS011;68;48.792;9.164;2024-03-08T08:28:37;43.28;;;36.13;;
151;SDS011;68;48.792;9.164;2024-03-08T08:31:05;45.83;;;38.67;;
151;SDS011;68;48.792;9.164;2024-03-08T08:33:33;47.05;;;37.30;;
151;SDS011;68;48.792;9.164;2024-03-08T08:36:00;43.92;;;38.15;;
151;SDS011;68;48.792;9.164;2024-03-08T08:38:29;44.17;;;38.00;;
151;SDS011;68;48.792;9.164;2024-03-08T08:40:57;49.60;;;37.15;;
151;SDS011;68;48.792;9.164;2024-03-08T08:43:24;47.72;;;37.75;;
151;SDS011;68;48.792;9.164;2024-03-08T08:45:51;43.03;;;37.78;;
151;SDS011;68;48.792;9.164;2024-03-08T08:48:19;45.08;;;38.53;;
151;SDS011;68;48.792;9.164;2024-03-08T08:50:46;45.65;;;38.00;;
151;SDS011;68;48.792;9.164;2024-03-08T08:53:13;44.85;;;36.13;;
151;SDS011;68;48.792;9.164;2024-03-08T08:55:43;42.53;;;36.53;;
151;SDS011;68;48.792;9.164;2024-03-08T08:58:10;43.03;;;35.92;;
151;SDS011;68;48.792;9.164;2024-03-08T09:00:38;41.75;;;37.15;;
151;SDS011;68;48.792;9.164;2024-03-08T09:03:05;43.33;;;36.90;;
151;SDS011;68;48.792;9.164;2024-03-08T09:05:32;43.53;;;37.50;;
151;SDS011;68;48.792;9.164;2024-03-08T09:08:00;47.08;;;36.28;;
151;SDS011;68;48.792;9.164;2024-03-08T09:10:28;44.63;;;38.40;;
151;SDS011;68;48.792;9.164;2024-03-08T09:12:56;46.28;;;38.10;;
151;SDS011;68;48.792;9.164;2024-03-08T09:15:24;46.15;;;36.80;;
151;SDS011;68;48.792;9.164;2024-03-08T09:17:53;46.80;;;37.97;;
151;SDS011;68;48.792;9.164;2024-03-08T09:20:20;43.53;;;37.13;;
151;SDS011;68;48.792;9.164;2024-03-08T09:22:47;41.17;;;35.40;;
151;SDS011;68;48.792;9.164;2024-03-08T09:25:13;43.28;;;36.95;;
151;SDS011;68;48.792;9.164;2024-03-08T09:27:41;45.42;;;36.33;;
151;SDS011;68;48.792;9.164;2024-03-08T09:30:10;41.95;;;36.90;;
151;SDS011;68;48.792;9.164;2024-03-08T09:32:38;42.70;;;35.30;;
151;SDS011;68;48.792;9.164;2024-03-08T09:35:05;41.47;;;35.30;;
151;SDS011;68;48.792;9.164;2024-03-08T09:37:32;42.80;;;36.03;;
151;SDS011;68;48.792;9.164;2024-03-08T09:39:59;44.20;;;36.70;;
151;SDS011;68;48.792;9.164;2024-03-08T09:42:29;41.83;;;35.50;;
151;SDS011;68;48.792;9.164;2024-03-08T09:44:56;44.60;;;36.88;;
151;SDS011;68;48.792;9.164;2024-03-08T09:47:25;44.65;;;36.03;;
151;SDS011;68;48.792;9.164;2024-03-08T09:49:58;44.58;;;36.47;;
151;SDS011;68;48.792;9.164;2024-03-08T09:52:25;43.50;;;35.83;;
151;SDS011;68;48.792;9.164;2024-03-08T09:54:55;48.38;;;37.33;;
151;SDS011;68;48.792;9.164;2024-03-08T09:57:23;43.08;;;36.45;;
151;SDS011;68;48.792;9.164;2024-03-08T09:59:51;46.42;;;37.08;;
151;SDS011;68;48.792;9.164;2024-03-08T10:02:18;53.33;;;35.75;;
151;SDS011;68;48.792;9.164;2024-03-08T10:04:47;42.47;;;35.55;;
151;SDS011;68;48.792;9.164;2024-03-08T10:07:14;40.95;;;33.83;;
151;SDS011;68;48.792;9.164;2024-03-08T10:09:41;40.10;;;35.60;;
151;SDS011;68;48.792;9.164;2024-03-08T10:12:12;39.67;;;34.25;;
151;SDS011;68;48.792;9.164;2024-03-08T10:14:39;39.72;;;34.67;;
151;SDS011;68;48.792;9.164;2024-03-08T10:17:07;42.40;;;35.00;;
151;SDS011;68;48.792;9.164;2024-03-08T10:19:34;44.95;;;36.70;;
151;SDS011;68;48.792;9.164;2024-03-08T10:22:02;42.72;;;34.35;;
151;SDS011;68;48.792;9.164;2024-03-08T10:24:29;41.47;;;33.83;;
151;SDS011;68;48.792;9.164;2024-03-08T10:26:58;42.80;;;33.90;;
151;SDS011;68;48.792;9.164;2024-03-08T10:29:27;38.30;;;33.75;;
151;SDS011;68;48.792;9.164;2024-03-08T10:31:54;40.10;;;33.72;;
151;SDS011;68;48.792;9.164;2024-03-08T10:34:22;39.13;;;34.20;;
151;SDS011;68;48.792;9.164;2024-03-08T10:36:49;37.55;;;32.03;;
151;SDS011;68;48.792;9.164;2024-03-08T10:39:20;42.00;;;33.83;;
151;SDS011;68;48.792;9.164;2024-03-08T10:41:52;40.53;;;33.40;;
151;SDS011;68;48.792;9.164;2024-03-08T10:44:25;40.10;;;32.97;;
151;SDS011;68;48.792;9.164;2024-03-08T10:47:07;40.58;;;34.22;;
151;SDS011;68;48.792;9.164;2024-03-08T10:49:43;37.80;;;33.83;;
151;SDS011;68;48.792;9.164;2024-03-08T10:52:17;37.38;;;33.20;;
151;SDS011;68;48.792;9.164;2024-03-08T10:54:47;37.53;;;33.80;;
151;SDS011;68;48.792;9.164;2024-03-08T10:57:14;41.13;;;34.95;;
151;SDS011;68;48.792;9.164;2024-03-08T10:59:45;39.70;;;33.42;;
151;SDS011;68;48.792;9.164;2024-03-08T11:02:14;37.60;;;34.85;;
151;SDS011;68;48.792;9.164;2024-03-08T11:04:46;35.03;;;32.38;;
151;SDS011;68;48.792;9.164;2024-03-08T11:07:15;37.05;;;33.63;;
151;SDS011;68;48.792;9.164;2024-03-08T11:09:44;37.60;;;32.95;;
151;SDS011;68;48.792;9.164;2024-03-08T11:12:23;39.70;;;33.80;;
151;SDS011;68;48.792;9.164;2024-03-08T11:14:54;40.10;;;33.55;;
151;SDS011;68;48.792;9.164;2024-03-08T11:17:25;38.33;;;32.22;;
151;SDS011;68;48.792;9.164;2024-03-08T11:20:09;37.75;;;34.00;;
151;SDS011;68;48.792;9.164;2024-03-08T11:22:41;37.75;;;33.08;;
151;SDS011;68;48.792;9.164;2024-03-08T11:25:30;37.58;;;31.80;;
151;SDS011;68;48.792;9.164;2024-03-08T11:28:14;35.75;;;32.20;;
151;SDS011;68;48.792;9.164;2024-03-08T11:30:43;40.85;;;34.00;;
151;SDS011;68;48.792;9.164;2024-03-08T11:33:12;36.03;;;31.95;;
151;SDS011;68;48.792;9.164;2024-03-08T11:35:39;39.33;;;32.50;;
151;SDS011;68;48.792;9.164;2024-03-08T11:38:10;36.83;;;30.98;;
151;SDS011;68;48.792;9.164;2024-03-08T11:40:39;37.38;;;32.42;;
151;SDS011;68;48.792;9.164;2024-03-08T11:43:07;39.65;;;32.30;;
151;SDS011;68;48.792;9.164;2024-03-08T11:45:34;37.30;;;31.85;;
151;SDS011;68;48.792;9.164;2024-03-08T11:48:02;35.00;;;31.55;;
151;SDS011;68;48.792;9.164;2024-03-08T11:50:30;35.67;;;31.58;;
151;SDS011;68;48.792;9.164;2024-03-08T11:53:01;37.22;;;31.98;;
151;SDS011;68;48.792;9.164;2024-03-08T11:55:29;35.10;;;32.30;;
151;SDS011;68;48.792;9.164;2024-03-08T11:58:02;33.00;;;30.85;;
151;SDS011;68;48.792;9.164;2024-03-08T12:00:29;35.30;;;30.70;;
151;SDS011;68;48.792;9.164;2024-03-08T12:03:06;33.75;;;29.38;;
151;SDS011;68;48.792;9.164;2024-03-08T12:05:35;36.42;;;30.60;;
151;SDS011;68;48.792;9.164;2024-03-08T12:08:03;33.60;;;30.35;;
151;SDS011;68;48.792;9.164;2024-03-08T12:10:32;36.40;;;31.08;;
151;SDS011;68;48.792;9.164;2024-03-08T12:13:01;40.83;;;30.88;;
151;SDS011;68;48.792;9.164;2024-03-08T12:15:29;32.83;;;30.15;;
151;SDS011;68;48.792;9.164;2024-03-08T12:17:58;31.38;;;29.30;;
151;SDS011;68;48.792;9.164;2024-03-08T12:20:26;33.05;;;30.40;;
151;SDS011;68;48.792;9.164;2024-03-08T12:22:55;35.67;;;30.30;;
151;SDS011;68;48.792;9.164;2024-03-08T12:25:25;39.50;;;31.48;;
151;SDS011;68;48.792;9.164;2024-03-08T12:27:53;34.03;;;30.45;;
151;SDS011;68;48.792;9.164;2024-03-08T12:30:24;35.15;;;31.52;;
151;SDS011;68;48.792;9.164;2024-03-08T12:32:53;35.63;;;31.23;;
151;SDS011;68;48.792;9.164;2024-03-08T12:35:23;37.70;;;32.22;;
151;SDS011;68;48.792;9.164;2024-03-08T12:37:50;39.83;;;33.30;;
151;SDS011;68;48.792;9.164;2024-03-08T12:40:19;35.25;;;31.33;;
151;SDS011;68;48.792;9.164;2024-03-08T12:42:52;40.20;;;32.78;;
151;SDS011;68;48.792;9.164;2024-03-08T12:45:18;35.22;;;31.33;;
151;SDS011;68;48.792;9.164;2024-03-08T12:47:48;41.55;;;32.92;;
151;SDS011;68;48.792;9.164;2024-03-08T12:50:18;38.78;;;31.98;;
151;SDS011;68;48.792;9.164;2024-03-08T12:52:45;40.72;;;32.88;;
151;SDS011;68;48.792;9.164;2024-03-08T12:55:13;37.25;;;32.00;;
151;SDS011;68;48.792;9.164;2024-03-08T12:57:41;39.67;;;32.88;;
151;SDS011;68;48.792;9.164;2024-03-08T13:00:09;40.00;;;32.60;;
151;SDS011;68;48.792;9.164;2024-03-08T13:02:38;39.35;;;33.45;;
151;SDS011;68;48.792;9.164;2024-03-08T13:05:08;38.05;;;33.55;;
151;SDS011;68;48.792;9.164;2024-03-08T13:07:36;40.83;;;34.03;;
151;SDS011;68;48.792;9.164;2024-03-08T13:10:03;44.08;;;34.00;;
151;SDS011;68;48.792;9.164;2024-03-08T13:12:32;45.88;;;33.58;;
151;SDS011;68;48.792;9.164;2024-03-08T13:15:00;39.80;;;33.50;;
151;SDS011;68;48.792;9.164;2024-03-08T13:17:30;41.13;;;33.58;;
151;SDS011;68;48.792;9.164;2024-03-08T13:19:56;40.55;;;33.80;;
151;SDS011;68;48.792;9.164;2024-03-08T13:22:26;40.70;;;33.38;;
151;SDS011;68;48.792;9.164;2024-03-08T13:24:53;40.45;;;33.75;;
151;SDS011;68;48.792;9.164;2024-03-08T13:27:20;40.08;;;31.88;;
151;SDS011;68;48.792;9.164;2024-03-08T13:29:50;43.25;;;33.00;;
151;SDS011;68;48.792;9.164;2024-03-08T13:32:17;41.95;;;33.65;;
151;SDS011;68;48.792;9.164;2024-03-08T13:34:45;41.45;;;34.38;;
151;SDS011;68;48.792;9.164;2024-03-08T13:37:13;40.03;;;33.22;;
151;SDS011;68;48.792;9.164;2024-03-08T13:39:42;40.30;;;34.30;;
151;SDS011;68;48.792;9.164;2024-03-08T13:42:10;42.47;;;33.20;;
151;SDS011;68;48.792;9.164;2024-03-08T13:44:38;45.03;;;33.67;;
151;SDS011;68;48.792;9.164;2024-03-08T13:47:09;39.42;;;34.55;;
151;SDS011;68;48.792;9.164;2024-03-08T13:49:37;40.33;;;33.28;;
151;SDS011;68;48.792;9.164;2024-03-08T13:52:03;37.25;;;33.67;;
151;SDS011;68;48.792;9.164;2024-03-08T13:54:33;40.38;;;34.70;;
151;SDS011;68;48.792;9.164;2024-03-08T13:57:01;41.72;;;34.10;;
151;SDS011;68;48.792;9.164;2024-03-08T13:59:29;51.42;;;34.85;;
151;SDS011;68;48.792;9.164;2024-03-08T14:01:58;39.75;;;33.70;;
151;SDS011;68;48.792;9.164;2024-03-08T14:04:26;39.25;;;33.13;;
151;SDS011;68;48.792;9.164;2024-03-08T14:06:53;41.28;;;33.05;;
151;SDS011;68;48.792;9.164;2024-03-08T14:09:22;37.85;;;32.72;;
151;SDS011;68;48.792;9.164;2024-03-08T14:11:50;39.75;;;33.55;;
151;SDS011;68;48.792;9.164;2024-03-08T14:14:21;38.47;;;32.03;;
151;SDS011;68;48.792;9.164;2024-03-08T14:16:48;40.50;;;32.85;;
151;SDS011;68;48.792;9.164;2024-03-08T14:19:17;38.30;;;32.47;;
151;SDS011;68;48.792;9.164;2024-03-08T14:21:44;38.05;;;32.65;;
151;SDS011;68;48.792;9.164;2024-03-08T14:24:12;37.75;;;32.33;;
151;SDS011;68;48.792;9.164;2024-03-08T14:26:40;40.65;;;31.45;;
151;SDS011;68;48.792;9.164;2024-03-08T14:29:07;40.72;;;31.95;;
151;SDS011;68;48.792;9.164;2024-03-08T14:31:36;39.33;;;31.80;;
151;SDS011;68;48.792;9.164;2024-03-08T14:34:03;38.65;;;32.95;;
151;SDS011;68;48.792;9.164;2024-03-08T14:36:30;43.15;;;32.92;;
151;SDS011;68;48.792;9.164;2024-03-08T14:38:57;39.90;;;32.33;;
151;SDS011;68;48.792;9.164;2024-03-08T14:41:24;39.28;;;32.05;;
151;SDS011;68;48.792;9.164;2024-03-08T14:43:51;39.97;;;32.25;;
151;SDS011;68;48.792;9.164;2024-03-08T14:46:19;38.47;;;33.20;;
151;SDS011;68;48.792;9.164;2024-03-08T14:48:49;39.78;;;32.40;;
151;SDS011;68;48.792;9.164;2024-03-08T14:51:16;40.88;;;33.45;;
151;SDS011;68;48.792;9.164;2024-03-08T14:53:46;43.80;;;35.13;;
151;SDS011;68;48.792;9.164;2024-03-08T14:56:14;39.42;;;31.90;;
151;SDS011;68;48.792;9.164;2024-03-08T14:58:41;37.28;;;31.88;;
151;SDS011;68;48.792;9.164;2024-03-08T15:01:09;38.85;;;34.15;;
151;SDS011;68;48.792;9.164;2024-03-08T15:03:38;40.83;;;33.80;;
151;SDS011;68;48.792;9.164;2024-03-08T15:06:06;39.55;;;33.47;;
151;SDS011;68;48.792;9.164;2024-03-08T15:08:35;40.83;;;31.60;;
151;SDS011;68;48.792;9.164;2024-03-08T15:11:02;39.00;;;33.00;;
151;SDS011;68;48.792;9.164;2024-03-08T15:13:33;43.03;;;34.50;;
151;SDS011;68;48.792;9.164;2024-03-08T15:16:04;41.70;;;33.90;;
151;SDS011;68;48.792;9.164;2024-03-08T15:18:32;42.53;;;33.65;;
151;SDS011;68;48.792;9.164;2024-03-08T15:21:01;41.83;;;34.10;;
151;SDS011;68;48.792;9.164;2024-03-08T15:23:32;41.80;;;32.55;;
151;SDS011;68;48.792;9.164;2024-03-08T15:26:00;39.58;;;32.80;;
151;SDS011;68;48.792;9.164;2024-03-08T15:28:27;40.40;;;33.03;;
151;SDS011;68;48.792;9.164;2024-03-08T15:31:01;43.28;;;32.20;;
151;SDS011;68;48.792;9.164;2024-03-08T15:33:31;38.47;;;32.10;;
151;SDS011;68;48.792;9.164;2024-03-08T15:35:58;36.17;;;31.85;;